Time;durP1;ratioP1;P1;durP2;ratioP2;P2;SDS_P1;SDS_P2;PMS_P1;PMS_P2;Temp;Humidity;BMP_temperature;BMP_pressure;BME280_temperature;BME280_humidity;BME280_pressure;Samples;Min_cycle;Max_cycle;Signal;HPM_P1;HPM_P2
2023/08/08 00:01:02;;;;;;;0.40;0.20;;;;;;;14.48;95.91;100280.50;5006368;28;20500;-51
2023/08/08 00:03:28;;;;;;;0.40;0.20;;;;;;;14.49;96.02;100275.06;5005794;28;20444;-51
2023/08/08 00:05:55;;;;;;;0.40;0.20;;;;;;;14.56;96.08;100289.06;4999843;28;20457;-51
2023/08/08 00:08:21;;;;;;;0.40;0.20;;;;;;;14.45;96.05;100284.19;5003492;28;20459;-51
2023/08/08 00:10:48;;;;;;;0.40;0.20;;;;;;;14.48;96.57;100286.72;4999408;28;20464;-51
2023/08/08 00:13:14;;;;;;;0.40;0.20;;;;;;;14.51;95.49;100275.88;5000236;28;20459;-51
2023/08/08 00:15:41;;;;;;;0.40;0.20;;;;;;;14.49;96.55;100276.88;5006156;28;20477;-51
2023/08/08 00:18:07;;;;;;;0.40;0.20;;;;;;;14.49;96.19;100268.88;5006054;28;20947;-51
2023/08/08 00:20:34;;;;;;;0.40;0.20;;;;;;;14.40;95.82;100278.16;4980045;28;20490;-51
2023/08/08 00:23:00;;;;;;;0.40;0.20;;;;;;;14.41;95.79;100274.53;5006215;28;20535;-51
2023/08/08 00:25:27;;;;;;;0.40;0.20;;;;;;;14.18;97.13;100280.88;4999834;28;20448;-51
2023/08/08 00:27:53;;;;;;;0.40;0.20;;;;;;;13.94;97.63;100279.25;4999677;28;20803;-51
2023/08/08 00:30:20;;;;;;;0.40;0.20;;;;;;;14.01;98.34;100263.84;5005455;28;21065;-51
2023/08/08 00:32:47;;;;;;;0.40;0.20;;;;;;;14.09;98.16;100275.94;5005857;28;20559;-51
2023/08/08 00:35:13;;;;;;;0.40;0.20;;;;;;;14.29;97.09;100268.88;4999736;28;20901;-51
2023/08/08 00:37:40;;;;;;;0.40;0.20;;;;;;;14.24;96.38;100261.03;4999283;28;20457;-51
2023/08/08 00:40:07;;;;;;;0.40;0.20;;;;;;;14.33;96.94;100265.09;5009149;28;20999;-51
2023/08/08 00:42:33;;;;;;;0.40;0.20;;;;;;;14.18;97.39;100261.31;5009834;28;20510;-51
2023/08/08 00:45:01;;;;;;;0.40;0.20;;;;;;;14.29;96.37;100268.88;5004349;28;20989;-51
2023/08/08 00:47:28;;;;;;;0.40;0.20;;;;;;;14.48;96.22;100269.81;5015071;28;20635;-51
2023/08/08 00:49:55;;;;;;;0.40;0.20;;;;;;;14.47;95.54;100268.06;5004726;28;20472;-51
2023/08/08 00:52:22;;;;;;;0.40;0.20;;;;;;;14.35;96.39;100269.44;5003256;28;20461;-51
2023/08/08 00:54:48;;;;;;;0.40;0.20;;;;;;;14.32;96.23;100264.25;5007893;28;20544;-51
2023/08/08 00:57:15;;;;;;;0.40;0.20;;;;;;;14.23;96.96;100284.22;5009604;28;20942;-51
2023/08/08 00:59:42;;;;;;;0.40;0.20;;;;;;;14.17;96.39;100270.25;5005121;28;20468;-51
2023/08/08 01:02:08;;;;;;;0.40;0.20;;;;;;;14.06;97.21;100272.53;5002589;28;20532;-51
2023/08/08 01:04:35;;;;;;;0.40;0.20;;;;;;;13.80;98.25;100270.97;5007801;28;20457;-51
2023/08/08 01:07:11;;;;;;;0.40;0.20;;;;;;;13.86;97.75;100271.59;5009571;28;20543;-51
2023/08/08 01:10:07;;;;;;;0.40;0.20;;;;;;;13.82;97.98;100267.28;4999832;28;20500;-51
2023/08/08 01:12:44;;;;;;;0.40;0.20;;;;;;;13.85;98.33;100267.19;4983105;28;20518;-51
2023/08/08 01:15:12;;;;;;;0.40;0.20;;;;;;;13.82;98.10;100264.63;5003102;28;20475;-51
2023/08/08 01:17:41;;;;;;;0.40;0.20;;;;;;;14.08;98.55;100260.81;5007103;28;20502;-51
2023/08/08 01:20:10;;;;;;;0.40;0.20;;;;;;;13.84;97.91;100262.78;5009107;28;20492;-51
2023/08/08 01:22:40;;;;;;;0.40;0.20;;;;;;;13.53;98.17;100265.84;5005797;28;20449;-51
2023/08/08 01:25:08;;;;;;;0.40;0.20;;;;;;;13.53;99.53;100272.97;5002718;28;20491;-51
2023/08/08 01:27:35;;;;;;;0.40;0.20;;;;;;;13.78;98.74;100260.34;5005414;28;20503;-51
2023/08/08 01:30:01;;;;;;;0.40;0.20;;;;;;;13.76;98.67;100267.56;5009538;28;20498;-52
2023/08/08 01:32:28;;;;;;;0.40;0.20;;;;;;;13.79;98.34;100262.09;5007056;28;20929;-52
2023/08/08 01:34:54;;;;;;;0.40;0.20;;;;;;;13.90;98.30;100261.63;5002137;28;20822;-52
2023/08/08 01:37:30;;;;;;;0.40;0.20;;;;;;;13.56;99.01;100259.50;5004747;28;20460;-51
2023/08/08 01:40:00;;;;;;;0.40;0.20;;;;;;;13.45;99.93;100272.44;5008896;28;20464;-52
2023/08/08 01:42:27;;;;;;;0.40;0.20;;;;;;;13.54;99.49;100258.69;5008362;28;20471;-52
2023/08/08 01:44:55;;;;;;;0.40;0.20;;;;;;;13.52;99.21;100266.75;5002841;28;20907;-52
2023/08/08 01:47:21;;;;;;;0.40;0.20;;;;;;;13.49;99.18;100258.88;5014490;28;20448;-52
2023/08/08 01:49:48;;;;;;;0.40;0.20;;;;;;;13.69;98.20;100263.41;5002479;28;20589;-52
2023/08/08 01:52:14;;;;;;;0.40;0.20;;;;;;;13.49;98.64;100266.03;5002189;28;20536;-51
2023/08/08 01:54:42;;;;;;;0.40;0.20;;;;;;;13.38;99.20;100266.47;5008248;28;20532;-52
2023/08/08 01:57:08;;;;;;;0.40;0.20;;;;;;;13.41;99.55;100268.13;5008448;28;21012;-52
2023/08/08 01:59:35;;;;;;;0.40;0.20;;;;;;;13.40;99.34;100271.75;5003340;28;20576;-51
2023/08/08 02:02:01;;;;;;;0.40;0.20;;;;;;;13.26;99.44;100266.94;5001835;28;20527;-52
2023/08/08 02:04:28;;;;;;;0.40;0.20;;;;;;;13.10;99.95;100261.31;5006777;28;20452;-52
2023/08/08 02:06:54;;;;;;;0.40;0.20;;;;;;;13.64;99.30;100260.94;5007112;28;20960;-52
2023/08/08 02:09:21;;;;;;;0.40;0.20;;;;;;;13.58;98.48;100258.53;4998524;28;20614;-51
2023/08/08 02:11:47;;;;;;;0.40;0.30;;;;;;;13.45;98.38;100259.09;5008481;28;20507;-52
2023/08/08 02:14:14;;;;;;;0.40;0.20;;;;;;;13.25;99.17;100252.75;5004009;28;20480;-51
2023/08/08 02:16:42;;;;;;;0.40;0.20;;;;;;;13.38;98.55;100246.91;5001491;28;20450;-52
2023/08/08 02:19:08;;;;;;;0.40;0.20;;;;;;;13.45;98.58;100248.41;5005670;28;20480;-52
2023/08/08 02:21:35;;;;;;;0.40;0.20;;;;;;;13.43;99.68;100251.16;5008284;28;20883;-52
2023/08/08 02:24:01;;;;;;;0.40;0.20;;;;;;;13.39;98.97;100252.19;5004124;28;20475;-52
2023/08/08 02:26:28;;;;;;;0.40;0.20;;;;;;;13.16;100.00;100246.88;5001587;28;20464;-52
2023/08/08 02:28:54;;;;;;;0.40;0.20;;;;;;;13.20;99.53;100245.84;5005631;28;20457;-52
2023/08/08 02:31:21;;;;;;;0.40;0.20;;;;;;;13.13;99.24;100252.31;5007858;28;20985;-52
2023/08/08 02:33:50;;;;;;;0.40;0.20;;;;;;;13.23;99.70;100249.25;4994824;28;20449;-51
2023/08/08 02:36:17;;;;;;;0.40;0.20;;;;;;;12.81;100.00;100245.59;5008210;28;20508;-52
2023/08/08 02:38:44;;;;;;;0.40;0.20;;;;;;;13.04;100.00;100241.09;5004149;28;20547;-52
2023/08/08 02:41:10;;;;;;;0.40;0.20;;;;;;;12.76;100.00;100245.78;5000619;28;21081;-52
2023/08/08 02:43:37;;;;;;;0.40;0.20;;;;;;;12.79;100.00;100250.97;5004876;28;20813;-52
2023/08/08 02:46:03;;;;;;;0.40;0.20;;;;;;;12.92;100.00;100248.72;5010714;28;20531;-52
2023/08/08 02:48:30;;;;;;;0.40;0.20;;;;;;;12.60;100.00;100242.78;5004248;28;20457;-52
2023/08/08 02:50:57;;;;;;;0.40;0.20;;;;;;;12.64;100.00;100241.75;5007540;28;20477;-52
2023/08/08 02:53:23;;;;;;;0.40;0.20;;;;;;;12.68;100.00;100239.84;5005187;28;20829;-51
2023/08/08 02:55:50;;;;;;;0.40;0.20;;;;;;;12.68;100.00;100238.03;5000602;28;20457;-52
2023/08/08 02:58:16;;;;;;;0.40;0.20;;;;;;;12.65;100.00;100247.97;5003399;28;20822;-51
2023/08/08 03:00:43;;;;;;;0.40;0.20;;;;;;;12.93;100.00;100237.97;5006891;28;21097;-52
2023/08/08 03:03:09;;;;;;;0.40;0.20;;;;;;;12.62;100.00;100250.75;5005028;28;20445;-52
2023/08/08 03:05:35;;;;;;;0.40;0.20;;;;;;;12.36;100.00;100244.59;5000517;28;20543;-52
2023/08/08 03:08:02;;;;;;;0.40;0.20;;;;;;;12.41;100.00;100244.41;5003489;28;20459;-52
2023/08/08 03:10:28;;;;;;;0.40;0.20;;;;;;;12.59;100.00;100251.72;5000491;28;20473;-52
2023/08/08 03:12:55;;;;;;;0.40;0.20;;;;;;;12.53;100.00;100245.75;5002941;28;20908;-51
2023/08/08 03:15:21;;;;;;;0.40;0.20;;;;;;;12.46;100.00;100237.97;5007188;28;20516;-51
2023/08/08 03:17:48;;;;;;;0.40;0.20;;;;;;;12.50;100.00;100238.75;5005796;28;20452;-52
2023/08/08 03:20:15;;;;;;;0.40;0.20;;;;;;;12.49;100.00;100230.81;4982509;28;20474;-52
2023/08/08 03:22:41;;;;;;;0.40;0.20;;;;;;;12.59;100.00;100238.38;5005479;28;20583;-51
2023/08/08 03:25:08;;;;;;;0.40;0.20;;;;;;;12.49;100.00;100233.47;5000581;28;20818;-51
2023/08/08 03:27:34;;;;;;;0.40;0.20;;;;;;;12.46;100.00;100239.78;5002419;28;20461;-51
2023/08/08 03:30:01;;;;;;;0.40;0.20;;;;;;;12.42;100.00;100243.47;5006463;28;20481;-52
2023/08/08 03:32:28;;;;;;;0.40;0.20;;;;;;;12.48;99.72;100247.75;5005700;28;20452;-52
2023/08/08 03:34:54;;;;;;;0.40;0.20;;;;;;;12.46;100.00;100243.31;5000047;28;20871;-52
2023/08/08 03:37:21;;;;;;;0.40;0.20;;;;;;;12.26;100.00;100242.31;5001845;28;20485;-52
2023/08/08 03:39:47;;;;;;;0.40;0.20;;;;;;;12.22;100.00;100248.69;5006741;28;20531;-52
2023/08/08 03:42:14;;;;;;;0.40;0.20;;;;;;;12.00;100.00;100243.22;5005989;28;20490;-52
2023/08/08 03:44:40;;;;;;;0.40;0.20;;;;;;;11.89;100.00;100240.94;4999195;28;20448;-51
2023/08/08 03:47:07;;;;;;;0.40;0.20;;;;;;;12.20;100.00;100238.09;5013183;28;20476;-51
2023/08/08 03:49:44;;;;;;;0.40;0.20;;;;;;;12.10;100.00;100245.53;4988092;28;20518;-51
2023/08/08 03:52:11;;;;;;;0.40;0.20;;;;;;;12.16;100.00;100239.97;4999806;28;20540;-52
2023/08/08 03:54:38;;;;;;;0.40;0.20;;;;;;;12.09;99.83;100245.59;5005854;28;20453;-52
2023/08/08 03:57:05;;;;;;;0.40;0.20;;;;;;;12.17;100.00;100240.84;5006281;28;20510;-51
2023/08/08 03:59:31;;;;;;;0.40;0.20;;;;;;;12.16;100.00;100242.63;5000885;28;20463;-51
2023/08/08 04:01:58;;;;;;;0.40;0.20;;;;;;;12.12;100.00;100238.34;4999680;28;20547;-51
2023/08/08 04:04:24;;;;;;;0.40;0.20;;;;;;;12.13;100.00;100249.88;5005676;28;20537;-51
2023/08/08 04:06:50;;;;;;;0.40;0.20;;;;;;;12.13;100.00;100237.41;5006278;28;20458;-51
2023/08/08 04:09:17;;;;;;;0.40;0.20;;;;;;;12.13;100.00;100245.41;4996125;28;20878;-51
2023/08/08 04:11:43;;;;;;;0.40;0.20;;;;;;;12.15;100.00;100250.69;5005942;28;20455;-51
2023/08/08 04:14:10;;;;;;;0.40;0.20;;;;;;;12.08;100.00;100241.19;5001107;28;20448;-51
2023/08/08 04:16:36;;;;;;;0.40;0.20;;;;;;;12.07;100.00;100242.97;4999423;28;20453;-51
2023/08/08 04:19:03;;;;;;;0.40;0.20;;;;;;;11.77;100.00;100244.00;5005117;28;20456;-51
2023/08/08 04:21:32;;;;;;;0.40;0.20;;;;;;;11.87;100.00;100248.13;5006090;28;20499;-51
2023/08/08 04:23:59;;;;;;;0.40;0.20;;;;;;;11.71;100.00;100249.53;5001121;28;20445;-50
2023/08/08 04:26:26;;;;;;;0.40;0.20;;;;;;;11.76;100.00;100252.91;4999425;28;20453;-51
2023/08/08 04:28:53;;;;;;;0.40;0.20;;;;;;;11.69;100.00;100246.06;5004000;28;21024;-52
2023/08/08 04:31:19;;;;;;;0.40;0.20;;;;;;;11.82;100.00;100250.09;5005892;28;20923;-51
2023/08/08 04:33:46;;;;;;;0.40;0.20;;;;;;;11.87;100.00;100258.78;5001073;28;20540;-51
2023/08/08 04:36:12;;;;;;;0.40;0.20;;;;;;;11.60;100.00;100249.88;4999269;28;20492;-51
2023/08/08 04:38:38;;;;;;;0.40;0.20;;;;;;;11.54;100.00;100252.78;5009851;28;20448;-51
2023/08/08 04:41:05;;;;;;;0.40;0.20;;;;;;;11.53;100.00;100251.03;4999238;28;20563;-51
2023/08/08 04:43:31;;;;;;;0.40;0.20;;;;;;;11.61;100.00;100253.41;5004441;28;20484;-51
2023/08/08 04:45:58;;;;;;;0.40;0.20;;;;;;;11.81;100.00;100251.00;5008374;28;20477;-50
2023/08/08 04:48:24;;;;;;;0.40;0.20;;;;;;;11.78;100.00;100251.06;5003603;28;20544;-50
2023/08/08 04:50:51;;;;;;;0.40;0.20;;;;;;;11.89;100.00;100248.06;5005609;28;20477;-51
2023/08/08 04:53:17;;;;;;;0.40;0.20;;;;;;;11.93;100.00;100253.25;5001660;28;20554;-51
2023/08/08 04:55:44;;;;;;;0.40;0.20;;;;;;;12.70;99.38;100245.97;4999065;28;20548;-51
2023/08/08 04:58:10;;;;;;;0.40;0.20;;;;;;;13.74;95.51;100253.41;5003268;28;20454;-51
2023/08/08 05:00:36;;;;;;;0.40;0.20;;;;;;;14.01;93.05;100251.34;5005653;28;20472;-51
2023/08/08 05:03:03;;;;;;;0.40;0.20;;;;;;;14.76;89.91;100246.19;5002072;28;20496;-51
2023/08/08 05:05:30;;;;;;;0.40;0.20;;;;;;;15.13;88.23;100241.78;4999060;28;20453;-51
2023/08/08 05:07:56;;;;;;;0.40;0.20;;;;;;;15.47;86.98;100242.81;5002459;28;20963;-51
2023/08/08 05:10:22;;;;;;;0.40;0.20;;;;;;;15.48;87.12;100237.38;4998432;28;20531;-51
2023/08/08 05:12:49;;;;;;;0.40;0.20;;;;;;;15.83;86.05;100243.69;5002423;28;20545;-51
2023/08/08 05:15:15;;;;;;;0.50;0.40;;;;;;;16.04;85.28;100241.72;5005865;28;20561;-51
2023/08/08 05:17:42;;;;;;;0.40;0.20;;;;;;;16.19;84.45;100240.94;5002531;28;20480;-51
2023/08/08 05:20:09;;;;;;;0.40;0.20;;;;;;;16.50;84.66;100236.59;4998717;28;20472;-51
2023/08/08 05:22:36;;;;;;;0.40;0.20;;;;;;;16.84;84.36;100239.22;5001742;28;20494;-51
2023/08/08 05:25:02;;;;;;;0.40;0.20;;;;;;;17.18;83.50;100240.88;4998262;28;20479;-51
2023/08/08 05:27:29;;;;;;;0.40;0.20;;;;;;;16.94;83.17;100234.19;5005426;28;20453;-51
2023/08/08 05:29:55;;;;;;;4.07;3.70;;;;;;;17.40;83.29;100226.22;5009013;28;20488;-51
2023/08/08 05:32:22;;;;;;;0.40;0.20;;;;;;;17.86;81.49;100234.31;5006525;28;20925;-51
2023/08/08 05:34:50;;;;;;;0.40;0.20;;;;;;;17.69;81.85;100238.00;5002117;28;20448;-51
2023/08/08 05:37:17;;;;;;;0.40;0.20;;;;;;;17.48;82.19;100232.03;5005099;28;20485;-50
2023/08/08 05:39:44;;;;;;;0.40;0.20;;;;;;;17.81;81.65;100234.56;5009012;28;20469;-51
2023/08/08 05:42:11;;;;;;;0.40;0.20;;;;;;;17.81;81.01;100236.41;5006788;28;20499;-50
2023/08/08 05:44:38;;;;;;;0.40;0.20;;;;;;;17.63;80.77;100232.94;5002345;28;20989;-51
2023/08/08 05:47:05;;;;;;;0.40;0.20;;;;;;;17.63;81.84;100233.81;5015324;28;20449;-51
2023/08/08 05:49:31;;;;;;;0.40;0.20;;;;;;;18.01;79.41;100234.25;5001730;28;20479;-51
2023/08/08 05:51:57;;;;;;;0.40;0.20;;;;;;;18.23;79.28;100238.34;5003928;28;20473;-51
2023/08/08 05:54:24;;;;;;;0.40;0.20;;;;;;;18.25;79.16;100231.06;5008973;28;20503;-51
2023/08/08 05:56:51;;;;;;;0.40;0.20;;;;;;;18.02;80.22;100238.69;5007519;28;20456;-51
2023/08/08 05:59:18;;;;;;;0.40;0.20;;;;;;;18.38;79.93;100232.03;5001944;28;20490;-51
2023/08/08 06:01:44;;;;;;;0.40;0.20;;;;;;;18.02;79.64;100236.00;5003421;28;20524;-51
2023/08/08 06:04:11;;;;;;;0.40;0.20;;;;;;;18.19;79.20;100237.66;5008381;28;20464;-51
2023/08/08 06:06:38;;;;;;;0.40;0.20;;;;;;;17.87;81.70;100228.84;5007749;28;20464;-51
2023/08/08 06:09:05;;;;;;;0.40;0.20;;;;;;;18.07;79.94;100238.41;4999706;28;20450;-51
2023/08/08 06:11:31;;;;;;;0.40;0.20;;;;;;;17.92;80.80;100237.50;5007497;28;20998;-51
2023/08/08 06:13:58;;;;;;;0.40;0.20;;;;;;;18.17;80.39;100242.28;5002236;28;21011;-51
2023/08/08 06:16:24;;;;;;;0.40;0.20;;;;;;;18.09;81.91;100243.69;5002666;28;20517;-50
2023/08/08 06:18:52;;;;;;;0.40;0.20;;;;;;;18.27;79.18;100237.19;5008585;28;20453;-51
2023/08/08 06:21:18;;;;;;;0.40;0.20;;;;;;;18.21;79.26;100234.88;5007893;28;20555;-50
2023/08/08 06:23:46;;;;;;;0.50;0.50;;;;;;;18.28;78.48;100244.31;5001689;28;20484;-51
2023/08/08 06:26:12;;;;;;;0.40;0.20;;;;;;;18.44;78.36;100238.84;5002120;28;20461;-51
2023/08/08 06:28:39;;;;;;;0.40;0.20;;;;;;;18.36;78.65;100236.63;5006986;28;20508;-51
2023/08/08 06:31:05;;;;;;;0.40;0.20;;;;;;;19.05;76.23;100229.59;5007470;28;21080;-52
2023/08/08 06:33:32;;;;;;;0.40;0.30;;;;;;;19.03;76.49;100231.53;5001234;28;20444;-51
2023/08/08 06:35:58;;;;;;;0.40;0.20;;;;;;;18.59;77.29;100228.00;5000883;28;20548;-51
2023/08/08 06:38:25;;;;;;;0.40;0.20;;;;;;;18.21;78.75;100234.88;5011257;28;20514;-51
2023/08/08 06:40:51;;;;;;;0.40;0.20;;;;;;;18.49;78.85;100240.28;5001508;28;20499;-51
2023/08/08 06:43:18;;;;;;;0.40;0.20;;;;;;;18.14;78.07;100231.69;5007938;28;20525;-51
2023/08/08 06:45:44;;;;;;;0.40;0.20;;;;;;;18.07;78.43;100227.63;5007929;28;20449;-51
2023/08/08 06:48:11;;;;;;;0.40;0.20;;;;;;;18.29;77.08;100229.91;5007020;28;20456;-51
2023/08/08 06:50:37;;;;;;;0.40;0.20;;;;;;;18.55;76.44;100239.06;5007499;28;20500;-51
2023/08/08 06:53:04;;;;;;;0.40;0.20;;;;;;;18.54;75.56;100230.13;5002039;28;20946;-51
2023/08/08 06:55:31;;;;;;;0.40;0.20;;;;;;;18.86;75.10;100229.94;5000735;28;20826;-51
2023/08/08 06:57:57;;;;;;;0.40;0.20;;;;;;;18.63;75.04;100228.66;5006782;28;20895;-51
2023/08/08 07:00:24;;;;;;;0.40;0.30;;;;;;;18.56;75.50;100230.00;5007269;28;21051;-51
2023/08/08 07:02:51;;;;;;;0.40;0.30;;;;;;;19.29;73.45;100216.38;5001668;28;20936;-51
2023/08/08 07:05:18;;;;;;;0.40;0.20;;;;;;;18.78;74.03;100219.66;5000677;28;20461;-51
2023/08/08 07:07:44;;;;;;;0.40;0.20;;;;;;;19.01;73.54;100220.88;5006630;28;20540;-51
2023/08/08 07:10:12;;;;;;;0.40;0.20;;;;;;;18.80;72.53;100223.13;4984923;28;20481;-51
2023/08/08 07:12:39;;;;;;;0.40;0.20;;;;;;;19.18;70.50;100225.16;5001994;28;20452;-51
2023/08/08 07:15:08;;;;;;;0.40;0.20;;;;;;;19.55;69.51;100220.06;5000464;28;20540;-51
2023/08/08 07:17:34;;;;;;;0.40;0.20;;;;;;;19.42;69.29;100215.47;5005305;28;20453;-51
2023/08/08 07:20:02;;;;;;;0.40;0.20;;;;;;;19.32;69.24;100217.03;5007131;28;20835;-51
2023/08/08 07:22:28;;;;;;;0.40;0.20;;;;;;;19.56;68.35;100217.28;5001649;28;20493;-51
2023/08/08 07:24:55;;;;;;;0.40;0.20;;;;;;;19.67;69.10;100214.72;5000662;28;20439;-51
2023/08/08 07:27:21;;;;;;;0.40;0.20;;;;;;;19.95;67.70;100215.53;5004729;28;20849;-51
2023/08/08 07:29:48;;;;;;;0.40;0.20;;;;;;;19.66;67.54;100215.69;5007670;28;20545;-51
2023/08/08 07:32:14;;;;;;;0.50;0.20;;;;;;;19.81;66.45;100211.09;5003089;28;20483;-51
2023/08/08 07:34:41;;;;;;;0.40;0.20;;;;;;;19.46;66.59;100214.31;5000350;28;20461;-51
2023/08/08 07:37:07;;;;;;;0.40;0.20;;;;;;;19.48;67.02;100208.81;5004233;28;20455;-51
2023/08/08 07:39:34;;;;;;;0.40;0.20;;;;;;;19.67;66.29;100206.63;5006793;28;20941;-51
2023/08/08 07:42:00;;;;;;;0.40;0.20;;;;;;;19.40;66.21;100200.34;5003133;28;20567;-51
2023/08/08 07:44:27;;;;;;;0.40;0.20;;;;;;;19.46;66.22;100208.91;5000239;28;20539;-51
2023/08/08 07:46:53;;;;;;;0.40;0.20;;;;;;;19.15;67.40;100203.78;5013223;28;20491;-51
2023/08/08 07:49:20;;;;;;;0.40;0.20;;;;;;;19.14;68.15;100208.31;5000158;28;20449;-51
2023/08/08 07:51:46;;;;;;;0.40;0.20;;;;;;;18.99;68.48;100201.25;4991767;28;20454;-51
2023/08/08 07:54:13;;;;;;;0.40;0.20;;;;;;;19.11;67.65;100191.50;5004079;28;20453;-51
2023/08/08 07:56:39;;;;;;;0.40;0.20;;;;;;;19.43;66.04;100200.16;5003691;28;20560;-51
2023/08/08 07:59:06;;;;;;;0.40;0.20;;;;;;;19.35;68.22;100197.13;4999956;28;20448;-51
2023/08/08 08:01:32;;;;;;;0.40;0.20;;;;;;;19.29;68.38;100186.72;5002794;28;20473;-51
2023/08/08 08:03:59;;;;;;;0.40;0.20;;;;;;;19.21;68.20;100176.47;5006308;28;20472;-51
2023/08/08 08:06:25;;;;;;;0.40;0.20;;;;;;;19.10;67.45;100192.47;5004109;28;20445;-51
2023/08/08 08:08:52;;;;;;;0.40;0.20;;;;;;;19.14;68.17;100189.47;4998717;28;20533;-51
2023/08/08 08:11:19;;;;;;;0.40;0.20;;;;;;;19.37;68.57;100187.94;5003906;28;20931;-51
2023/08/08 08:13:45;;;;;;;0.40;0.20;;;;;;;19.15;67.34;100175.03;4999614;28;20540;-51
2023/08/08 08:16:12;;;;;;;0.40;0.20;;;;;;;19.29;67.75;100184.03;5002276;28;20449;-50
2023/08/08 08:18:38;;;;;;;0.40;0.20;;;;;;;19.39;67.39;100175.22;5006502;28;20536;-51
2023/08/08 08:21:05;;;;;;;0.40;0.23;;;;;;;19.27;68.74;100180.56;5004185;28;20476;-51
2023/08/08 08:23:32;;;;;;;0.40;0.20;;;;;;;19.61;66.82;100180.09;4999256;28;20511;-51
2023/08/08 08:25:59;;;;;;;0.40;0.20;;;;;;;19.68;65.56;100183.22;5001905;28;20481;-51
2023/08/08 08:28:26;;;;;;;0.40;0.20;;;;;;;19.43;66.80;100173.19;5006303;28;20458;-51
2023/08/08 08:30:53;;;;;;;0.40;0.20;;;;;;;19.57;67.15;100174.97;5004159;28;21056;-50
2023/08/08 08:33:19;;;;;;;0.40;0.20;;;;;;;19.59;65.83;100173.91;4999177;28;20472;-50
2023/08/08 08:35:46;;;;;;;0.40;0.20;;;;;;;19.42;66.58;100179.53;5001185;28;20454;-50
2023/08/08 08:38:13;;;;;;;0.40;0.20;;;;;;;19.67;65.70;100168.88;5007753;28;20540;-51
2023/08/08 08:40:44;;;;;;;0.40;0.20;;;;;;;19.76;65.57;100168.25;5000639;28;20474;-50
2023/08/08 08:43:11;;;;;;;0.40;0.20;;;;;;;19.77;65.68;100169.97;5005966;28;20572;-50
2023/08/08 08:45:39;;;;;;;0.40;0.20;;;;;;;19.85;65.86;100176.66;5005759;28;20452;-50
2023/08/08 08:48:10;;;;;;;0.40;0.20;;;;;;;19.91;65.91;100185.22;4986660;28;20427;-51
2023/08/08 08:50:39;;;;;;;0.40;0.20;;;;;;;20.22;65.34;100181.25;4998985;28;20488;-51
2023/08/08 08:53:05;;;;;;;0.40;0.20;;;;;;;20.19;65.64;100175.19;5005254;28;20439;-50
2023/08/08 08:55:32;;;;;;;0.40;0.20;;;;;;;20.18;65.69;100186.97;5005806;28;20480;-51
2023/08/08 08:57:59;;;;;;;0.40;0.20;;;;;;;20.18;66.15;100176.19;5000811;28;20453;-51
2023/08/08 09:00:25;;;;;;;0.40;0.20;;;;;;;20.40;66.70;100185.31;5001584;28;21153;-51
2023/08/08 09:02:55;;;;;;;0.40;0.20;;;;;;;20.60;65.84;100175.00;5007988;28;20499;-51
2023/08/08 09:05:22;;;;;;;0.40;0.20;;;;;;;20.83;63.42;100179.59;5009582;28;20522;-51
2023/08/08 09:07:49;;;;;;;0.43;0.20;;;;;;;20.44;65.08;100185.16;4996670;28;20536;-51
2023/08/08 09:10:17;;;;;;;0.40;0.20;;;;;;;20.62;66.30;100176.59;5001807;28;20473;-51
2023/08/08 09:12:44;;;;;;;0.40;0.20;;;;;;;20.55;65.51;100186.09;5006794;28;20544;-51
2023/08/08 09:15:12;;;;;;;0.40;0.20;;;;;;;20.53;65.61;100182.66;5009392;28;20467;-51
2023/08/08 09:17:44;;;;;;;0.40;0.20;;;;;;;20.86;65.25;100181.22;5005955;28;20438;-50
2023/08/08 09:20:15;;;;;;;0.40;0.20;;;;;;;20.94;64.64;100176.94;5002798;28;20545;-51
2023/08/08 09:22:41;;;;;;;0.50;0.30;;;;;;;20.86;63.15;100181.22;5004465;28;20489;-51
2023/08/08 09:25:08;;;;;;;0.50;0.20;;;;;;;21.02;63.57;100180.94;5009230;28;20927;-51
2023/08/08 09:27:37;;;;;;;0.40;0.20;;;;;;;21.08;62.98;100175.94;5007485;28;20531;-51
2023/08/08 09:30:05;;;;;;;0.40;0.20;;;;;;;21.22;63.87;100172.22;5002205;28;20551;-51
2023/08/08 09:32:31;;;;;;;0.40;0.20;;;;;;;21.76;62.66;100174.44;5003300;28;20457;-51
2023/08/08 09:34:59;;;;;;;0.57;0.57;;;;;;;21.54;61.46;100168.00;5002028;28;20597;-51
2023/08/08 09:37:28;;;;;;;0.43;0.20;;;;;;;21.97;61.16;100172.81;5003051;28;20454;-51
2023/08/08 09:39:58;;;;;;;0.43;0.20;;;;;;;21.94;60.44;100159.50;5008669;28;20814;-51
2023/08/08 09:42:29;;;;;;;0.50;0.20;;;;;;;21.54;61.43;100165.28;5008751;28;20488;-51
2023/08/08 09:44:59;;;;;;;0.40;0.20;;;;;;;21.60;61.76;100166.66;5002655;28;20445;-51
2023/08/08 09:47:30;;;;;;;0.50;0.20;;;;;;;21.56;62.45;100163.31;5013789;28;20522;-51
2023/08/08 09:50:04;;;;;;;0.50;0.20;;;;;;;21.87;60.56;100169.06;5004215;28;20993;-51
2023/08/08 09:52:33;;;;;;;0.50;0.20;;;;;;;21.71;61.64;100168.53;5002073;28;20531;-51
2023/08/08 09:54:59;;;;;;;0.40;0.20;;;;;;;21.59;60.69;100173.91;5004855;28;20481;-51
2023/08/08 09:57:26;;;;;;;0.50;0.20;;;;;;;21.59;61.27;100171.19;5008414;28;20912;-51
2023/08/08 09:59:53;;;;;;;0.50;0.20;;;;;;;21.82;60.02;100172.16;5005531;28;20469;-51
2023/08/08 10:02:20;;;;;;;0.40;0.20;;;;;;;21.85;60.43;100171.91;5001656;28;20499;-51
2023/08/08 10:04:47;;;;;;;0.43;0.30;;;;;;;21.81;58.54;100170.44;5004795;28;20432;-51
2023/08/08 10:07:14;;;;;;;0.40;0.20;;;;;;;21.70;59.44;100166.81;5008319;28;20503;-51
2023/08/08 10:09:41;;;;;;;0.40;0.20;;;;;;;21.79;58.77;100171.50;4997980;28;20448;-51
2023/08/08 10:12:08;;;;;;;0.50;0.20;;;;;;;21.67;57.86;100172.47;5008244;28;20504;-51
2023/08/08 10:14:37;;;;;;;0.50;0.20;;;;;;;21.65;57.94;100163.56;5006555;28;20526;-51
2023/08/08 10:17:06;;;;;;;0.40;0.20;;;;;;;21.84;57.82;100163.91;5001606;28;20449;-51
2023/08/08 10:19:33;;;;;;;0.50;0.20;;;;;;;21.83;56.87;100160.34;5003034;28;20504;-51
2023/08/08 10:22:07;;;;;;;0.50;0.20;;;;;;;21.78;57.02;100169.78;5007970;28;20906;-51
2023/08/08 10:24:37;;;;;;;0.40;0.20;;;;;;;21.93;55.64;100165.03;5007763;28;20487;-51
2023/08/08 10:27:04;;;;;;;0.43;0.20;;;;;;;22.27;57.03;100160.56;5007724;28;20457;-51
2023/08/08 10:29:32;;;;;;;0.50;0.20;;;;;;;22.60;55.61;100154.28;5007683;28;20500;-52
2023/08/08 10:32:01;;;;;;;0.40;0.20;;;;;;;22.49;55.47;100157.03;5002850;28;20423;-52
2023/08/08 10:34:46;;;;;;;0.40;0.20;;;;;;;22.50;55.02;100159.63;5001422;28;20473;-51
2023/08/08 10:37:17;;;;;;;0.50;0.20;;;;;;;22.63;54.96;100160.34;5004080;28;20515;-52
2023/08/08 10:39:55;;;;;;;0.40;0.20;;;;;;;22.56;54.22;100158.25;5007814;28;20446;-51
2023/08/08 10:42:24;;;;;;;0.40;0.20;;;;;;;22.94;53.03;100161.44;5008083;28;20448;-52
2023/08/08 10:45:01;;;;;;;0.47;0.20;;;;;;;22.55;50.60;100162.81;5006566;28;20452;-51
2023/08/08 10:47:30;;;;;;;0.40;0.20;;;;;;;22.48;52.29;100167.00;5012710;28;20444;-51
2023/08/08 10:50:06;;;;;;;0.50;0.20;;;;;;;22.59;52.42;100164.28;5003083;28;20570;-51
2023/08/08 10:52:54;;;;;;;0.50;0.20;;;;;;;22.73;53.30;100161.31;5000725;28;20427;-51
2023/08/08 10:55:21;;;;;;;0.40;0.20;;;;;;;23.00;52.50;100149.22;5001781;28;20420;-51
2023/08/08 10:57:56;;;;;;;0.50;0.20;;;;;;;23.26;52.21;100141.63;5007283;28;20453;-51
2023/08/08 11:00:25;;;;;;;0.50;0.20;;;;;;;23.49;51.57;100147.84;5007554;28;20551;-51
2023/08/08 11:02:54;;;;;;;0.50;0.30;;;;;;;22.95;51.87;100144.19;5002033;28;20467;-51
2023/08/08 11:05:22;;;;;;;0.50;0.30;;;;;;;22.90;51.78;100159.13;5000818;28;20451;-51
2023/08/08 11:07:49;;;;;;;0.50;0.20;;;;;;;22.76;51.22;100150.25;5005811;28;20803;-51
2023/08/08 11:10:16;;;;;;;0.50;0.20;;;;;;;23.12;51.25;100153.63;4999036;28;20473;-51
2023/08/08 11:12:53;;;;;;;0.50;0.20;;;;;;;23.14;51.67;100145.38;5004501;28;20490;-51
2023/08/08 11:15:19;;;;;;;0.50;0.20;;;;;;;23.15;52.11;100139.81;5007340;28;20511;-51
2023/08/08 11:17:45;;;;;;;0.50;0.20;;;;;;;23.05;52.18;100150.59;5004455;28;20939;-51
2023/08/08 11:20:12;;;;;;;0.50;0.20;;;;;;;23.06;50.91;100146.03;5000256;28;20450;-51
2023/08/08 11:22:38;;;;;;;0.47;0.20;;;;;;;23.15;51.98;100145.25;5003000;28;20511;-51
2023/08/08 11:25:07;;;;;;;0.50;0.23;;;;;;;22.70;48.66;100147.16;5007281;28;20493;-51